createdAt,value
2018-08-19T00:02:18.953Z,2.43
2018-08-19T00:05:07.217Z,4.00
2018-08-19T00:07:36.285Z,5.97
2018-08-19T00:10:06.278Z,4.67
2018-08-19T00:12:38.540Z,7.93
2018-08-19T00:15:07.900Z,5.23
2018-08-19T00:17:37.016Z,6.53
2018-08-19T00:20:08.272Z,5.63
2018-08-19T00:22:37.425Z,4.10
2018-08-19T00:25:06.636Z,5.33
2018-08-19T00:27:37.768Z,3.70
2018-08-19T00:30:08.318Z,4.70
2018-08-19T00:32:37.431Z,4.07
2018-08-19T00:35:06.536Z,7.10
2018-08-19T00:37:35.645Z,6.83
2018-08-19T00:40:10.025Z,3.30
2018-08-19T00:42:39.161Z,5.00
2018-08-19T00:45:08.261Z,6.20
2018-08-19T00:47:37.379Z,5.10
2018-08-19T00:50:06.543Z,4.30
2018-08-19T00:52:37.676Z,4.17
2018-08-19T00:55:06.774Z,2.87
2018-08-19T00:57:38.568Z,8.80
2018-08-19T01:00:08.053Z,2.97
2018-08-19T01:02:37.160Z,3.53
2018-08-19T01:05:06.298Z,5.63
2018-08-19T01:07:35.394Z,2.77
2018-08-19T01:10:04.593Z,3.60
2018-08-19T01:12:33.695Z,5.43
2018-08-19T01:15:02.787Z,4.90
2018-08-19T01:17:36.329Z,5.37
2018-08-19T01:20:08.772Z,4.97
2018-08-19T01:22:42.951Z,3.27
2018-08-19T01:25:13.760Z,5.60
2018-08-19T01:27:42.854Z,6.73
2018-08-19T01:30:16.028Z,5.93
2018-08-19T01:32:45.254Z,6.17
2018-08-19T01:35:14.462Z,4.50
2018-08-19T01:37:43.537Z,3.90
2018-08-19T01:40:16.884Z,2.53
2018-08-19T01:42:46.545Z,4.87
2018-08-19T01:45:15.686Z,6.60
2018-08-19T01:47:44.759Z,4.13
2018-08-19T01:50:15.269Z,6.33
2018-08-19T01:52:45.152Z,8.93
2018-08-19T01:55:14.402Z,4.07
2018-08-19T01:57:47.485Z,2.97
2018-08-19T02:00:17.440Z,6.77
2018-08-19T02:02:58.984Z,6.57
2018-08-19T02:05:29.065Z,3.47
2018-08-19T02:08:00.036Z,7.77
2018-08-19T02:10:30.976Z,6.80
2018-08-19T02:13:00.379Z,6.20
2018-08-19T02:15:30.591Z,4.70
2018-08-19T02:18:03.800Z,4.10
2018-08-19T02:20:35.143Z,3.50
2018-08-19T02:23:06.490Z,7.20
2018-08-19T02:25:39.888Z,6.00
2018-08-19T02:28:09.992Z,5.83
2018-08-19T02:30:49.753Z,6.07
2018-08-19T02:33:18.839Z,4.03
2018-08-19T02:35:51.722Z,4.43
2018-08-19T02:38:20.925Z,4.50
2018-08-19T02:40:52.165Z,4.27
2018-08-19T02:43:21.980Z,7.07
2018-08-19T02:45:51.113Z,11.70
2018-08-19T02:48:34.596Z,4.50
2018-08-19T02:51:04.070Z,11.30
2018-08-19T02:53:33.196Z,4.07
2018-08-19T02:56:02.596Z,4.67
2018-08-19T02:58:31.745Z,4.57
2018-08-19T03:01:00.831Z,6.27
2018-08-19T03:03:29.913Z,5.73
2018-08-19T03:06:00.483Z,5.63
2018-08-19T03:08:30.532Z,4.57
2018-08-19T03:10:59.743Z,7.93
2018-08-19T03:13:28.834Z,3.57
2018-08-19T03:15:57.909Z,5.87
2018-08-19T03:18:26.981Z,7.07
2018-08-19T03:20:56.069Z,4.33
2018-08-19T03:23:25.158Z,4.90
2018-08-19T03:25:54.241Z,7.03
2018-08-19T03:28:23.334Z,3.80
2018-08-19T03:30:57.873Z,5.60
2018-08-19T03:33:27.075Z,4.20
2018-08-19T03:35:56.162Z,4.00
2018-08-19T03:38:27.187Z,4.27
2018-08-19T03:40:57.536Z,6.90
2018-08-19T03:43:26.625Z,5.73
2018-08-19T03:45:55.740Z,6.40
2018-08-19T03:48:24.822Z,9.73
2018-08-19T03:50:53.899Z,4.80
2018-08-19T03:53:23.005Z,4.73
2018-08-19T03:55:52.052Z,5.10
2018-08-19T03:58:21.190Z,4.67
2018-08-19T04:00:50.293Z,8.13
2018-08-19T04:03:26.321Z,5.60
2018-08-19T04:06:00.180Z,8.03
2018-08-19T04:08:34.732Z,4.43
2018-08-19T04:11:07.016Z,8.80
2018-08-19T04:13:41.005Z,5.97
2018-08-19T04:16:11.414Z,5.70
2018-08-19T04:18:44.752Z,8.10
2018-08-19T04:21:16.146Z,5.03
2018-08-19T04:23:47.495Z,5.03
2018-08-19T04:26:16.577Z,6.10
2018-08-19T04:28:46.260Z,5.43
2018-08-19T04:31:20.929Z,9.67
2018-08-19T04:33:50.050Z,7.80
2018-08-19T04:36:21.572Z,7.13
2018-08-19T04:38:50.672Z,6.20
2018-08-19T04:41:19.828Z,7.97
2018-08-19T04:43:49.480Z,8.27
2018-08-19T04:46:18.604Z,11.23
2018-08-19T04:48:48.223Z,4.27
2018-08-19T04:51:17.426Z,5.53
2018-08-19T04:53:46.484Z,4.77
2018-08-19T04:56:15.569Z,5.20
2018-08-19T04:58:44.632Z,7.37
2018-08-19T05:01:13.859Z,9.47
2018-08-19T05:03:44.833Z,7.27
2018-08-19T05:06:13.952Z,9.60
2018-08-19T05:08:43.086Z,7.07
2018-08-19T05:11:12.186Z,22.50
2018-08-19T05:13:41.324Z,5.50
2018-08-19T05:16:11.326Z,11.70
2018-08-19T05:18:41.842Z,4.47
2018-08-19T05:21:15.005Z,4.47
2018-08-19T05:23:44.081Z,4.40
2018-08-19T05:26:13.456Z,7.90
2018-08-19T05:28:45.938Z,6.40
2018-08-19T05:31:15.175Z,6.70
2018-08-19T05:33:44.237Z,7.63
2018-08-19T05:36:13.364Z,4.90
2018-08-19T05:38:43.393Z,6.80
2018-08-19T05:41:12.468Z,9.90
2018-08-19T05:43:41.520Z,4.70
2018-08-19T05:46:10.664Z,4.73
2018-08-19T05:48:39.730Z,5.20
2018-08-19T05:51:08.795Z,10.80
2018-08-19T05:53:42.056Z,4.83
2018-08-19T05:56:11.344Z,5.47
2018-08-19T05:58:40.441Z,5.80
2018-08-19T06:01:09.641Z,7.80
2018-08-19T06:03:38.633Z,5.93
2018-08-19T06:06:07.727Z,5.50
2018-08-19T06:08:36.821Z,4.20
2018-08-19T06:11:05.936Z,7.23
2018-08-19T06:13:34.986Z,11.40
2018-08-19T06:16:04.074Z,5.93
2018-08-19T06:18:33.130Z,6.70
2018-08-19T06:21:02.286Z,4.60
2018-08-19T06:23:31.353Z,4.40
2018-08-19T06:26:00.406Z,7.97
2018-08-19T06:28:29.497Z,5.47
2018-08-19T06:30:58.547Z,5.07
2018-08-19T06:33:27.629Z,6.60
2018-08-19T06:35:56.715Z,9.33
2018-08-19T06:38:25.782Z,6.93
2018-08-19T06:40:54.826Z,8.73
2018-08-19T06:43:23.876Z,7.13
2018-08-19T06:45:52.956Z,8.80
2018-08-19T06:48:22.067Z,12.97
2018-08-19T06:50:51.152Z,7.63
2018-08-19T06:53:25.629Z,5.10
2018-08-19T06:55:54.904Z,7.93
2018-08-19T06:58:25.560Z,5.33
2018-08-19T07:00:54.612Z,11.60
2018-08-19T07:03:24.406Z,6.07
2018-08-19T07:06:05.989Z,5.20
2018-08-19T07:08:35.152Z,8.73
2018-08-19T07:11:04.247Z,8.27
2018-08-19T07:13:33.337Z,9.67
2018-08-19T07:16:02.437Z,5.60
2018-08-19T07:18:31.612Z,7.27
2018-08-19T07:21:00.618Z,7.53
2018-08-19T07:23:29.732Z,5.23
2018-08-19T07:25:58.788Z,5.80
2018-08-19T07:28:27.838Z,5.67
2018-08-19T07:30:56.893Z,14.23
2018-08-19T07:33:25.952Z,8.20
2018-08-19T07:35:55.049Z,15.93
2018-08-19T07:38:24.117Z,11.03
2018-08-19T07:40:53.187Z,10.97
2018-08-19T07:43:22.240Z,7.00
2018-08-19T07:45:51.323Z,10.80
2018-08-19T07:48:20.404Z,7.53
2018-08-19T07:50:49.486Z,8.63
2018-08-19T07:53:18.580Z,15.93
2018-08-19T07:55:47.692Z,8.27
2018-08-19T07:58:25.860Z,5.73
2018-08-19T08:00:55.084Z,14.33
2018-08-19T08:03:24.141Z,8.80
2018-08-19T08:05:53.207Z,8.93
2018-08-19T08:08:22.295Z,8.30
2018-08-19T08:10:51.530Z,11.10
2018-08-19T08:13:20.592Z,9.47
2018-08-19T08:15:56.733Z,10.33
2018-08-19T08:18:25.825Z,10.20
2018-08-19T08:20:59.515Z,9.33
2018-08-19T08:23:29.151Z,7.20
2018-08-19T08:25:58.235Z,10.03
2018-08-19T08:28:27.307Z,9.93
2018-08-19T08:30:56.432Z,11.00
2018-08-19T08:33:25.496Z,10.90
2018-08-19T08:35:58.011Z,8.33
2018-08-19T08:38:27.080Z,10.13
2018-08-19T08:40:56.140Z,9.00
2018-08-19T08:43:25.208Z,11.20
2018-08-19T08:45:56.452Z,12.50
2018-08-19T08:48:25.782Z,5.53
2018-08-19T08:50:54.869Z,11.13
2018-08-19T08:53:27.662Z,10.77
2018-08-19T08:55:56.980Z,15.37
2018-08-19T08:58:26.041Z,9.13
2018-08-19T09:00:55.141Z,11.43
2018-08-19T09:03:24.305Z,9.13
2018-08-19T09:05:53.396Z,6.93
2018-08-19T09:08:22.498Z,8.50
2018-08-19T09:10:51.841Z,7.30
2018-08-19T09:13:20.891Z,8.67
2018-08-19T09:15:50.037Z,7.40
2018-08-19T09:18:19.127Z,8.57
2018-08-19T09:20:48.245Z,7.70
2018-08-19T09:23:17.496Z,10.60
2018-08-19T09:25:46.463Z,13.00
2018-08-19T09:28:15.640Z,11.67
2018-08-19T09:30:45.383Z,9.67
2018-08-19T09:33:14.706Z,9.30
2018-08-19T09:35:44.213Z,6.70
2018-08-19T09:38:17.014Z,21.47
2018-08-19T09:40:46.621Z,10.53
2018-08-19T09:43:16.000Z,11.77
2018-08-19T09:45:45.488Z,9.20
2018-08-19T09:48:15.221Z,7.40
2018-08-19T09:50:44.591Z,9.33
2018-08-19T09:53:13.760Z,17.97
2018-08-19T09:55:44.244Z,11.60
2018-08-19T09:58:16.537Z,8.13
2018-08-19T10:00:51.353Z,10.27
2018-08-19T10:03:20.641Z,8.73
2018-08-19T10:05:49.745Z,6.30
2018-08-19T10:08:21.757Z,8.90
2018-08-19T10:10:51.641Z,6.13
2018-08-19T10:13:20.747Z,7.30
2018-08-19T10:15:49.834Z,4.17
2018-08-19T10:18:18.943Z,7.30
2018-08-19T10:20:48.047Z,6.43
2018-08-19T10:23:17.092Z,5.90
2018-08-19T10:25:46.189Z,10.27
2018-08-19T10:28:15.240Z,7.57
2018-08-19T10:30:50.701Z,11.07
2018-08-19T10:33:21.428Z,7.27
2018-08-19T10:35:50.831Z,10.50
2018-08-19T10:38:19.897Z,8.20
2018-08-19T10:40:57.602Z,4.63
2018-08-19T10:43:28.403Z,4.10
2018-08-19T10:45:57.616Z,5.70
2018-08-19T10:48:26.755Z,5.20
2018-08-19T10:50:55.933Z,3.27
2018-08-19T10:53:27.455Z,10.17
2018-08-19T10:56:00.695Z,8.20
2018-08-19T10:58:29.871Z,5.00
2018-08-19T11:00:58.897Z,4.73
2018-08-19T11:03:28.442Z,7.80
2018-08-19T11:05:57.513Z,8.93
2018-08-19T11:08:26.735Z,6.30
2018-08-19T11:10:55.773Z,6.13
2018-08-19T11:13:25.304Z,2.10
2018-08-19T11:15:57.596Z,6.47
2018-08-19T11:18:33.853Z,2.00
2018-08-19T11:21:09.767Z,5.90
2018-08-19T11:23:40.732Z,1.73
2018-08-19T11:26:10.581Z,3.33
2018-08-19T11:28:46.288Z,2.57
2018-08-19T11:31:23.342Z,2.07
2018-08-19T11:33:53.424Z,3.50
2018-08-19T11:36:28.957Z,7.33
2018-08-19T11:38:58.072Z,1.70
2018-08-19T11:41:30.593Z,2.23
2018-08-19T11:44:03.207Z,2.90
2018-08-19T11:46:32.616Z,2.07
2018-08-19T11:49:06.964Z,4.57
2018-08-19T11:51:43.000Z,3.07
2018-08-19T11:54:13.560Z,3.10
2018-08-19T11:56:47.074Z,2.93
2018-08-19T11:59:16.196Z,2.40
2018-08-19T12:01:45.405Z,1.70
2018-08-19T12:04:14.608Z,1.33
2018-08-19T12:06:43.769Z,1.93
2018-08-19T12:09:12.924Z,2.10
2018-08-19T12:11:42.359Z,4.60
2018-08-19T12:14:13.154Z,12.47
2018-08-19T12:16:48.946Z,2.53
2018-08-19T12:19:23.411Z,4.30
2018-08-19T12:22:08.714Z,4.80
2018-08-19T12:24:41.053Z,3.67
2018-08-19T12:27:11.712Z,3.90
2018-08-19T12:29:41.816Z,3.50
2018-08-19T12:32:25.055Z,2.77
2018-08-19T12:34:56.047Z,3.43
2018-08-19T12:37:26.553Z,3.97
2018-08-19T12:39:56.408Z,5.03
2018-08-19T12:42:26.187Z,1.80
2018-08-19T12:45:02.084Z,1.37
2018-08-19T12:47:31.402Z,1.87
2018-08-19T12:50:02.257Z,1.87
2018-08-19T12:52:32.984Z,1.27
2018-08-19T12:55:05.013Z,1.23
2018-08-19T12:57:35.043Z,4.00
2018-08-19T13:00:15.872Z,2.03
2018-08-19T13:02:46.774Z,2.77
2018-08-19T13:05:16.841Z,2.23
2018-08-19T13:07:46.233Z,2.90
2018-08-19T13:10:15.845Z,1.93
2018-08-19T13:12:50.524Z,3.50
2018-08-19T13:15:19.723Z,1.27
2018-08-19T13:17:48.863Z,2.13
2018-08-19T13:20:17.954Z,2.60
2018-08-19T13:22:52.897Z,2.27
2018-08-19T13:25:23.798Z,2.90
2018-08-19T13:27:53.162Z,1.10
2018-08-19T13:30:23.144Z,3.60
2018-08-19T13:32:52.742Z,2.60
2018-08-19T13:35:21.951Z,2.90
2018-08-19T13:37:51.456Z,2.97
2018-08-19T13:40:20.642Z,2.97
2018-08-19T13:42:49.766Z,2.10
2018-08-19T13:45:20.199Z,3.80
2018-08-19T13:47:50.934Z,5.53
2018-08-19T13:50:20.053Z,2.40
2018-08-19T13:52:49.227Z,2.83
2018-08-19T13:55:19.508Z,3.90
2018-08-19T13:57:48.749Z,2.90
2018-08-19T14:00:19.428Z,1.33
2018-08-19T14:02:49.414Z,5.60
2018-08-19T14:05:18.563Z,2.37
2018-08-19T14:07:47.928Z,8.40
2018-08-19T14:10:17.766Z,3.40
2018-08-19T14:12:46.873Z,3.03
2018-08-19T14:15:15.956Z,3.00
2018-08-19T14:17:45.091Z,3.73
2018-08-19T14:20:14.215Z,5.70
2018-08-19T14:22:43.328Z,4.00
2018-08-19T14:25:12.772Z,2.40
2018-08-19T14:27:42.071Z,2.77
2018-08-19T14:30:12.141Z,9.63
2018-08-19T14:32:43.496Z,4.93
2018-08-19T14:35:12.772Z,3.67
2018-08-19T14:37:42.016Z,2.00
2018-08-19T14:40:14.503Z,3.97
2018-08-19T14:42:43.839Z,3.27
2018-08-19T14:45:12.985Z,4.60
2018-08-19T14:47:42.034Z,4.20
2018-08-19T14:50:16.108Z,7.50
2018-08-19T14:52:45.489Z,2.03
2018-08-19T14:55:14.556Z,4.03
2018-08-19T14:57:43.738Z,2.93
2018-08-19T15:00:14.529Z,3.90
2018-08-19T15:02:43.716Z,3.33
2018-08-19T15:05:16.421Z,3.03
2018-08-19T15:07:46.166Z,1.70
2018-08-19T15:10:21.307Z,3.13
2018-08-19T15:12:50.796Z,2.13
2018-08-19T15:15:19.878Z,3.50
2018-08-19T15:17:56.449Z,3.40
2018-08-19T15:20:31.733Z,4.97
2018-08-19T15:23:12.785Z,3.60
2018-08-19T15:25:41.848Z,4.33
2018-08-19T15:28:10.970Z,3.43
2018-08-19T15:30:41.153Z,3.77
2018-08-19T15:33:11.212Z,4.70
2018-08-19T15:35:40.481Z,4.47
2018-08-19T15:38:10.189Z,3.43
2018-08-19T15:40:42.819Z,2.53
2018-08-19T15:43:12.866Z,1.80
2018-08-19T15:45:42.676Z,3.67
2018-08-19T15:48:11.915Z,2.47
2018-08-19T15:50:41.045Z,2.30
2018-08-19T15:53:10.682Z,3.90
2018-08-19T15:55:40.000Z,3.63
2018-08-19T15:58:09.171Z,5.90
2018-08-19T16:00:40.037Z,3.50
2018-08-19T16:03:10.513Z,7.73
2018-08-19T16:05:39.568Z,4.70
2018-08-19T16:08:08.781Z,3.90
2018-08-19T16:10:37.939Z,3.77
2018-08-19T16:13:09.093Z,6.10
2018-08-19T16:15:38.264Z,5.13
2018-08-19T16:18:07.798Z,5.50
2018-08-19T16:20:37.137Z,4.00
2018-08-19T16:23:06.279Z,2.90
2018-08-19T16:25:35.915Z,6.50
2018-08-19T16:28:05.092Z,6.87
2018-08-19T16:30:34.220Z,7.90
2018-08-19T16:33:03.350Z,7.40
2018-08-19T16:35:32.580Z,10.10
2018-08-19T16:38:01.776Z,9.80
2018-08-19T16:40:30.880Z,8.40
2018-08-19T16:43:00.013Z,7.33
2018-08-19T16:45:29.108Z,10.50
2018-08-19T16:47:58.256Z,6.67
2018-08-19T16:50:27.405Z,9.17
2018-08-19T16:52:56.440Z,5.60
2018-08-19T16:55:25.552Z,6.73
2018-08-19T16:57:54.853Z,10.43
2018-08-19T17:00:23.997Z,6.63
2018-08-19T17:02:53.319Z,6.30
2018-08-19T17:05:30.264Z,9.90
2018-08-19T17:07:59.566Z,9.03
2018-08-19T17:10:30.365Z,6.73
2018-08-19T17:12:59.625Z,10.53
2018-08-19T17:15:29.168Z,8.43
2018-08-19T17:17:58.478Z,10.43
2018-08-19T17:20:27.630Z,14.87
2018-08-19T17:22:56.718Z,7.03
2018-08-19T17:25:25.854Z,8.73
2018-08-19T17:27:55.068Z,9.60
2018-08-19T17:30:24.185Z,11.90
2018-08-19T17:33:03.618Z,12.13
2018-08-19T17:35:32.691Z,10.43
2018-08-19T17:38:02.009Z,8.03
2018-08-19T17:40:31.477Z,10.80
2018-08-19T17:43:01.489Z,9.07
2018-08-19T17:45:30.605Z,8.13
2018-08-19T17:47:59.682Z,8.47
2018-08-19T17:50:29.606Z,8.37
2018-08-19T17:53:00.099Z,9.47
2018-08-19T17:55:29.256Z,9.80
2018-08-19T17:57:59.453Z,9.13
2018-08-19T18:00:28.602Z,8.50
2018-08-19T18:02:57.708Z,7.40
2018-08-19T18:05:27.000Z,16.00
2018-08-19T18:07:56.555Z,10.50
2018-08-19T18:10:25.711Z,10.20
2018-08-19T18:12:54.800Z,7.43
2018-08-19T18:15:23.880Z,10.80
2018-08-19T18:17:59.445Z,12.40
2018-08-19T18:20:33.109Z,9.17
2018-08-19T18:23:02.712Z,9.10
2018-08-19T18:25:31.850Z,10.93
2018-08-19T18:28:06.906Z,9.27
2018-08-19T18:30:36.104Z,6.87
2018-08-19T18:33:05.289Z,14.30
2018-08-19T18:35:34.393Z,8.70
2018-08-19T18:38:03.512Z,8.10
2018-08-19T18:40:34.098Z,11.40
2018-08-19T18:43:03.343Z,9.97
2018-08-19T18:45:32.432Z,9.13
2018-08-19T18:48:03.366Z,10.00
2018-08-19T18:50:32.468Z,11.93
2018-08-19T18:53:01.589Z,9.30
2018-08-19T18:55:30.821Z,12.83
2018-08-19T18:58:00.029Z,8.70
2018-08-19T19:00:29.223Z,16.63
2018-08-19T19:02:59.344Z,13.60
2018-08-19T19:05:31.417Z,18.63
2018-08-19T19:08:09.101Z,11.50
2018-08-19T19:10:38.593Z,11.90
2018-08-19T19:13:07.906Z,19.10
2018-08-19T19:15:38.274Z,11.50
2018-08-19T19:18:09.922Z,14.13
2018-08-19T19:20:49.591Z,10.70
2018-08-19T19:23:19.037Z,24.50
2018-08-19T19:25:48.218Z,14.90
2018-08-19T19:28:17.439Z,15.40
2018-08-19T19:30:46.610Z,14.37
2018-08-19T19:33:15.784Z,10.30
2018-08-19T19:35:44.901Z,8.80
2018-08-19T19:38:13.979Z,10.93
2018-08-19T19:40:43.104Z,14.87
2018-08-19T19:43:12.255Z,11.57
2018-08-19T19:45:48.661Z,16.43
2018-08-19T19:48:18.253Z,12.90
2018-08-19T19:50:47.401Z,13.53
2018-08-19T19:53:16.469Z,11.83
2018-08-19T19:55:45.662Z,11.53
2018-08-19T19:58:14.687Z,19.83
2018-08-19T20:00:53.500Z,11.73
2018-08-19T20:03:23.632Z,10.90
2018-08-19T20:05:52.764Z,13.50
2018-08-19T20:08:24.282Z,17.83
2018-08-19T20:10:53.378Z,12.43
2018-08-19T20:13:22.475Z,11.33
2018-08-19T20:15:51.614Z,11.17
2018-08-19T20:18:20.734Z,29.60
2018-08-19T20:20:49.902Z,11.27
2018-08-19T20:23:24.952Z,11.40
2018-08-19T20:25:55.539Z,10.40
2018-08-19T20:28:24.636Z,12.93
2018-08-19T20:30:53.711Z,14.07
2018-08-19T20:33:28.843Z,13.00
2018-08-19T20:35:58.025Z,15.30
2018-08-19T20:38:27.146Z,14.30
2018-08-19T20:40:56.259Z,10.20
2018-08-19T20:43:25.656Z,8.00
2018-08-19T20:45:54.752Z,9.90
2018-08-19T20:48:23.867Z,11.23
2018-08-19T20:50:53.065Z,14.80
2018-08-19T20:53:22.227Z,12.33
2018-08-19T20:55:51.341Z,14.97
2018-08-19T20:58:20.443Z,10.53
2018-08-19T21:00:49.619Z,23.00
2018-08-19T21:03:18.728Z,12.10
2018-08-19T21:05:47.932Z,11.23
2018-08-19T21:08:18.244Z,15.50
2018-08-19T21:10:48.293Z,10.53
2018-08-19T21:13:18.671Z,13.83
2018-08-19T21:15:49.100Z,11.80
2018-08-19T21:18:18.278Z,13.90
2018-08-19T21:20:47.384Z,10.43
2018-08-19T21:23:16.505Z,14.20
2018-08-19T21:25:51.578Z,11.50
2018-08-19T21:28:21.273Z,14.77
2018-08-19T21:30:50.376Z,12.20
2018-08-19T21:33:19.576Z,10.43
2018-08-19T21:35:49.781Z,15.17
2018-08-19T21:38:19.266Z,13.23
2018-08-19T21:40:48.665Z,11.60
2018-08-19T21:43:17.869Z,13.87
2018-08-19T21:45:47.025Z,12.93
2018-08-19T21:48:16.868Z,12.33
2018-08-19T21:50:45.986Z,20.40
2018-08-19T21:53:16.424Z,11.27
2018-08-19T21:55:49.699Z,19.13
2018-08-19T21:58:18.957Z,13.80
2018-08-19T22:00:52.764Z,12.20
2018-08-19T22:03:27.547Z,14.17
2018-08-19T22:05:56.644Z,12.90
2018-08-19T22:08:25.739Z,12.70
2018-08-19T22:10:54.891Z,14.60
2018-08-19T22:13:23.996Z,15.17
2018-08-19T22:15:53.193Z,11.83
2018-08-19T22:18:23.520Z,16.47
2018-08-19T22:21:06.428Z,11.37
2018-08-19T22:23:41.300Z,11.70
2018-08-19T22:26:11.492Z,14.73
2018-08-19T22:28:41.112Z,11.87
2018-08-19T22:31:23.586Z,12.87
2018-08-19T22:33:53.874Z,13.77
2018-08-19T22:36:23.060Z,8.77
2018-08-19T22:38:53.087Z,10.57
2018-08-19T22:41:24.533Z,11.67
2018-08-19T22:43:54.643Z,14.80
2018-08-19T22:46:24.425Z,12.10
2018-08-19T22:48:53.964Z,12.87
2018-08-19T22:51:23.195Z,10.30
2018-08-19T22:53:53.732Z,13.20
2018-08-19T22:56:23.212Z,13.47
2018-08-19T22:58:52.347Z,11.57
2018-08-19T23:01:21.618Z,12.43
2018-08-19T23:03:59.299Z,14.50
2018-08-19T23:06:29.168Z,13.20
2018-08-19T23:08:58.273Z,11.67
2018-08-19T23:11:35.280Z,12.20
2018-08-19T23:14:16.463Z,13.80
2018-08-19T23:16:45.544Z,13.97
2018-08-19T23:19:14.891Z,14.30
2018-08-19T23:21:43.988Z,10.93
2018-08-19T23:24:13.217Z,11.80
2018-08-19T23:26:42.305Z,13.17
2018-08-19T23:29:11.464Z,12.43
2018-08-19T23:31:40.607Z,11.77
2018-08-19T23:34:09.710Z,11.37
2018-08-19T23:36:39.007Z,18.33
2018-08-19T23:39:09.098Z,10.77
2018-08-19T23:41:38.302Z,14.30
2018-08-19T23:44:07.617Z,11.73
2018-08-19T23:46:36.908Z,11.30
2018-08-19T23:49:06.137Z,13.80
2018-08-19T23:51:35.255Z,11.43
2018-08-19T23:54:04.723Z,12.20
2018-08-19T23:56:33.927Z,10.67
2018-08-19T23:59:03.066Z,10.40
